createdAt,value
2022-09-04T00:00:13.503Z,0
2022-09-04T00:01:14.123Z,0
2022-09-04T00:02:15.111Z,0
2022-09-04T00:03:15.745Z,0
2022-09-04T00:04:17.129Z,0
2022-09-04T00:05:25.766Z,0
2022-09-04T00:06:17.690Z,0
2022-09-04T00:07:18.319Z,0
2022-09-04T00:08:18.531Z,0
2022-09-04T00:09:18.820Z,0
2022-09-04T00:10:19.423Z,0
2022-09-04T00:11:21.289Z,0
2022-09-04T00:12:24.968Z,0
2022-09-04T00:13:21.839Z,0
2022-09-04T00:14:22.760Z,0
2022-09-04T00:15:23.250Z,0
2022-09-04T00:16:23.664Z,0
2022-09-04T00:17:23.921Z,0
2022-09-04T00:18:23.944Z,0
2022-09-04T00:19:24.909Z,0
2022-09-04T00:20:26.106Z,0
2022-09-04T00:21:27.157Z,0
2022-09-04T00:22:27.878Z,0
2022-09-04T00:23:28.480Z,0
2022-09-04T00:24:29.968Z,0
2022-09-04T00:25:29.889Z,0
2022-09-04T00:26:32.339Z,0
2022-09-04T00:27:30.972Z,0
2022-09-04T00:28:31.665Z,0
2022-09-04T00:29:32.569Z,0
2022-09-04T00:30:32.940Z,0
2022-09-04T00:31:33.528Z,0
2022-09-04T00:32:33.534Z,0
2022-09-04T00:33:34.449Z,0
2022-09-04T00:34:34.769Z,0
2022-09-04T00:35:36.264Z,0
2022-09-04T00:36:36.195Z,0
2022-09-04T00:37:36.409Z,0
2022-09-04T00:38:37.117Z,0
2022-09-04T00:39:38.827Z,0
2022-09-04T00:40:42.790Z,0
2022-09-04T00:41:39.126Z,0
2022-09-04T00:42:39.844Z,0
2022-09-04T00:43:41.064Z,0
2022-09-04T00:44:41.269Z,0
2022-09-04T00:45:42.301Z,0
2022-09-04T00:46:42.854Z,0
2022-09-04T00:47:43.788Z,0
2022-09-04T00:48:44.706Z,0
2022-09-04T00:49:45.628Z,0
2022-09-04T00:50:46.248Z,0
2022-09-04T00:51:47.743Z,0
2022-09-04T00:52:50.198Z,0
2022-09-04T00:53:50.028Z,0
2022-09-04T00:54:50.650Z,0
2022-09-04T00:55:51.730Z,0
2022-09-04T00:56:51.667Z,0
2022-09-04T00:57:51.882Z,0
2022-09-04T00:58:52.224Z,0
2022-09-04T00:59:53.426Z,0
2022-09-04T01:00:53.618Z,0
2022-09-04T01:01:54.720Z,0
2022-09-04T01:02:55.523Z,0
2022-09-04T01:03:55.989Z,0
2022-09-04T01:04:56.580Z,0
2022-09-04T01:05:56.226Z,0
2022-09-04T01:06:56.629Z,0
2022-09-04T01:07:57.078Z,0
2022-09-04T01:09:01.955Z,0
2022-09-04T01:09:58.876Z,0
2022-09-04T01:10:59.704Z,0
2022-09-04T01:11:59.625Z,0
2022-09-04T01:13:00.350Z,0
2022-09-04T01:14:01.551Z,0
2022-09-04T01:15:04.692Z,0
2022-09-04T01:16:02.242Z,0
2022-09-04T01:17:02.856Z,0
2022-09-04T01:18:03.058Z,0
2022-09-04T01:19:04.266Z,0
2022-09-04T01:20:03.928Z,0
2022-09-04T01:21:04.854Z,0
2022-09-04T01:22:06.055Z,0
2022-09-04T01:23:06.773Z,0
2022-09-04T01:24:07.685Z,0
2022-09-04T01:25:07.603Z,0
2022-09-04T01:26:08.501Z,0
2022-09-04T01:27:09.146Z,0
2022-09-04T01:28:10.067Z,0
2022-09-04T01:29:10.389Z,0
2022-09-04T01:30:11.683Z,0
2022-09-04T01:31:11.903Z,0
2022-09-04T01:32:12.795Z,0
2022-09-04T01:33:13.286Z,0
2022-09-04T01:34:14.201Z,0
2022-09-04T01:35:14.397Z,0
2022-09-04T01:36:14.994Z,0
2022-09-04T01:37:15.635Z,0
2022-09-04T01:38:17.039Z,0
2022-09-04T01:39:16.717Z,0
2022-09-04T01:40:18.088Z,0
2022-09-04T01:41:17.604Z,0
2022-09-04T01:42:18.518Z,0
2022-09-04T01:43:19.277Z,0
2022-09-04T01:44:19.895Z,0
2022-09-04T01:45:22.728Z,0
2022-09-04T01:46:21.507Z,0
2022-09-04T01:47:22.725Z,0
2022-09-04T01:48:22.665Z,0
2022-09-04T01:49:23.597Z,0
2022-09-04T01:50:24.491Z,0
2022-09-04T01:51:24.985Z,0
2022-09-04T01:52:25.625Z,0
2022-09-04T01:53:26.174Z,0
2022-09-04T01:54:26.726Z,0
2022-09-04T01:55:27.647Z,0
2022-09-04T01:56:28.262Z,0
2022-09-04T01:57:28.478Z,0
2022-09-04T01:58:30.018Z,0
2022-09-04T01:59:29.636Z,0
2022-09-04T02:00:32.442Z,0
2022-09-04T02:01:32.624Z,0
2022-09-04T02:02:32.991Z,0
2022-09-04T02:03:33.134Z,0
2022-09-04T02:04:33.327Z,0
2022-09-04T02:05:33.538Z,0
2022-09-04T02:06:34.155Z,0
2022-09-04T02:07:34.476Z,0
2022-09-04T02:08:36.304Z,0
2022-09-04T02:09:36.500Z,0
2022-09-04T02:10:36.433Z,0
2022-09-04T02:11:39.540Z,0
2022-09-04T02:12:38.199Z,0
2022-09-04T02:13:38.645Z,0
2022-09-04T02:14:39.563Z,0
2022-09-04T02:15:40.480Z,0
2022-09-04T02:16:41.789Z,0
2022-09-04T02:17:41.589Z,0
2022-09-04T02:18:42.214Z,0
2022-09-04T02:19:42.137Z,0
2022-09-04T02:20:43.327Z,0
2022-09-04T02:21:44.523Z,0
2022-09-04T02:22:44.888Z,0
2022-09-04T02:23:45.463Z,0
2022-09-04T02:24:46.383Z,0
2022-09-04T02:25:46.599Z,0
2022-09-04T02:26:47.812Z,0
2022-09-04T02:27:47.426Z,0
2022-09-04T02:28:48.618Z,0
2022-09-04T02:29:49.537Z,0
2022-09-04T02:30:59.270Z,0
2022-09-04T02:31:50.653Z,0
2022-09-04T02:32:50.285Z,0
2022-09-04T02:33:50.721Z,0
2022-09-04T02:34:51.646Z,0
2022-09-04T02:35:51.556Z,0
2022-09-04T02:36:55.803Z,0
2022-09-04T02:37:52.717Z,0
2022-09-04T02:38:53.632Z,0
2022-09-04T02:39:54.363Z,0
2022-09-04T02:40:54.391Z,0
2022-09-04T02:41:54.308Z,0
2022-09-04T02:42:54.922Z,0
2022-09-04T02:43:55.927Z,0
2022-09-04T02:44:55.849Z,0
2022-09-04T02:45:57.045Z,0
2022-09-04T02:46:57.373Z,0
2022-09-04T02:47:57.276Z,0
2022-09-04T02:48:57.629Z,0
2022-09-04T02:49:59.120Z,0
2022-09-04T02:50:59.616Z,0
2022-09-04T02:51:59.832Z,0
2022-09-04T02:52:59.847Z,0
2022-09-04T02:53:59.822Z,0
2022-09-04T02:55:01.311Z,0
2022-09-04T02:56:01.216Z,0
2022-09-04T02:57:02.150Z,0
2022-09-04T02:58:03.560Z,0
2022-09-04T02:59:01.877Z,0
2022-09-04T03:00:03.070Z,0
2022-09-04T03:01:04.252Z,0
2022-09-04T03:02:05.091Z,0
2022-09-04T03:03:04.813Z,0
2022-09-04T03:04:05.816Z,0
2022-09-04T03:05:06.309Z,0
2022-09-04T03:06:07.240Z,0
2022-09-04T03:07:08.023Z,0
2022-09-04T03:08:07.946Z,0
2022-09-04T03:09:11.433Z,0
2022-09-04T03:10:09.071Z,0
2022-09-04T03:11:10.266Z,0
2022-09-04T03:12:10.706Z,0
2022-09-04T03:13:10.625Z,0
2022-09-04T03:14:11.604Z,0
2022-09-04T03:15:12.242Z,0
2022-09-04T03:16:13.849Z,0
2022-09-04T03:17:13.960Z,0
2022-09-04T03:18:16.891Z,0
2022-09-04T03:19:16.483Z,0
2022-09-04T03:20:15.374Z,0
2022-09-04T03:21:16.592Z,0
2022-09-04T03:22:16.790Z,0
2022-09-04T03:23:17.419Z,0
2022-09-04T03:24:17.140Z,0
2022-09-04T03:25:17.642Z,0
2022-09-04T03:26:17.558Z,0
2022-09-04T03:27:18.469Z,0
2022-09-04T03:28:19.410Z,0
2022-09-04T03:29:19.562Z,0
2022-09-04T03:30:20.179Z,0
2022-09-04T03:31:20.856Z,0
2022-09-04T03:32:27.717Z,0
2022-09-04T03:33:21.733Z,0
2022-09-04T03:34:21.425Z,0
2022-09-04T03:35:22.621Z,0
2022-09-04T03:36:23.135Z,0
2022-09-04T03:37:24.023Z,0
2022-09-04T03:38:24.626Z,0
2022-09-04T03:39:25.771Z,0
2022-09-04T03:40:26.545Z,0
2022-09-04T03:41:26.805Z,0
2022-09-04T03:42:27.742Z,0
2022-09-04T03:43:28.383Z,0
2022-09-04T03:44:29.682Z,0
2022-09-04T03:45:29.868Z,0
2022-09-04T03:46:30.738Z,0
2022-09-04T03:47:31.032Z,0
2022-09-04T03:48:30.972Z,0
2022-09-04T03:49:32.779Z,0
2022-09-04T03:50:31.972Z,0
2022-09-04T03:51:32.563Z,0
2022-09-04T03:52:32.782Z,0
2022-09-04T03:53:32.683Z,0
2022-09-04T03:54:33.673Z,0
2022-09-04T03:55:34.888Z,0
2022-09-04T03:56:35.386Z,0
2022-09-04T03:57:35.876Z,0
2022-09-04T03:58:36.427Z,0
2022-09-04T03:59:37.954Z,0
2022-09-04T04:00:37.432Z,0
2022-09-04T04:01:37.234Z,0
2022-09-04T04:02:37.153Z,0
2022-09-04T04:03:38.460Z,0
2022-09-04T04:04:39.477Z,0
2022-09-04T04:05:39.677Z,0
2022-09-04T04:06:40.674Z,0
2022-09-04T04:07:41.575Z,0
2022-09-04T04:08:42.523Z,0
2022-09-04T04:09:43.743Z,0
2022-09-04T04:10:43.435Z,0
2022-09-04T04:11:49.834Z,0
2022-09-04T04:12:45.334Z,0
2022-09-04T04:13:46.416Z,0
2022-09-04T04:14:47.416Z,0
2022-09-04T04:15:47.941Z,0
2022-09-04T04:16:56.012Z,0
2022-09-04T04:17:48.753Z,0
2022-09-04T04:18:51.482Z,0
2022-09-04T04:19:50.394Z,4
2022-09-04T04:20:51.607Z,4
2022-09-04T04:21:51.952Z,0
2022-09-04T04:22:52.871Z,0
2022-09-04T04:23:53.203Z,4
2022-09-04T04:24:54.498Z,0
2022-09-04T04:25:58.259Z,4
2022-09-04T04:27:00.260Z,4
2022-09-04T04:27:59.439Z,4
2022-09-04T04:28:56.643Z,4
2022-09-04T04:29:56.862Z,8
2022-09-04T04:30:56.487Z,8
2022-09-04T04:31:57.221Z,8
2022-09-04T04:32:57.833Z,12
2022-09-04T04:33:58.450Z,12
2022-09-04T04:34:59.761Z,12
2022-09-04T04:35:59.679Z,16
2022-09-04T04:37:00.172Z,16
2022-09-04T04:38:00.371Z,16
2022-09-04T04:39:00.297Z,20
2022-09-04T04:40:01.213Z,20
2022-09-04T04:41:01.877Z,24
2022-09-04T04:42:02.381Z,24
2022-09-04T04:43:02.593Z,28
2022-09-04T04:44:02.527Z,28
2022-09-04T04:45:03.098Z,32
2022-09-04T04:46:03.317Z,32
2022-09-04T04:47:04.333Z,36
2022-09-04T04:48:04.556Z,40
2022-09-04T04:49:04.898Z,40
2022-09-04T04:50:05.518Z,44
2022-09-04T04:51:06.715Z,48
2022-09-04T04:52:06.642Z,52
2022-09-04T04:53:07.857Z,52
2022-09-04T04:54:10.782Z,56
2022-09-04T04:55:08.474Z,60
2022-09-04T04:56:08.816Z,60
2022-09-04T04:57:09.589Z,64
2022-09-04T04:58:10.089Z,64
2022-09-04T04:59:10.032Z,68
2022-09-04T05:00:10.947Z,72
2022-09-04T05:01:11.923Z,72
2022-09-04T05:02:13.605Z,76
2022-09-04T05:03:13.199Z,80
2022-09-04T05:04:14.121Z,80
2022-09-04T05:05:14.244Z,84
2022-09-04T05:06:14.587Z,88
2022-09-04T05:07:15.788Z,88
2022-09-04T05:08:19.601Z,96
2022-09-04T05:09:16.646Z,100
2022-09-04T05:10:16.580Z,104
2022-09-04T05:11:17.502Z,108
2022-09-04T05:12:17.404Z,108
2022-09-04T05:13:18.916Z,112
2022-09-04T05:14:18.859Z,120
2022-09-04T05:15:19.583Z,124
2022-09-04T05:16:29.665Z,128
2022-09-04T05:17:21.393Z,132
2022-09-04T05:18:21.313Z,140
2022-09-04T05:19:21.214Z,144
2022-09-04T05:20:22.715Z,148
2022-09-04T05:21:23.038Z,148
2022-09-04T05:22:24.007Z,152
2022-09-04T05:23:24.833Z,152
2022-09-04T05:24:26.862Z,160
2022-09-04T05:25:25.885Z,164
2022-09-04T05:26:25.505Z,156
2022-09-04T05:27:26.401Z,164
2022-09-04T05:28:26.471Z,184
2022-09-04T05:29:30.518Z,168
2022-09-04T05:30:27.523Z,164
2022-09-04T05:31:28.726Z,168
2022-09-04T05:32:29.491Z,164
2022-09-04T05:33:29.115Z,172
2022-09-04T05:34:30.037Z,172
2022-09-04T05:35:41.180Z,176
2022-09-04T05:36:32.060Z,176
2022-09-04T05:37:35.770Z,184
2022-09-04T05:38:33.373Z,228
2022-09-04T05:39:33.601Z,204
2022-09-04T05:40:33.656Z,228
2022-09-04T05:41:34.857Z,228
2022-09-04T05:42:34.772Z,232
2022-09-04T05:43:35.266Z,276
2022-09-04T05:44:35.908Z,308
2022-09-04T05:45:36.911Z,284
2022-09-04T05:46:37.733Z,312
2022-09-04T05:47:41.802Z,332
2022-09-04T05:48:39.311Z,340
2022-09-04T05:49:39.230Z,364
2022-09-04T05:50:39.850Z,340
2022-09-04T05:51:42.463Z,328
2022-09-04T05:52:41.663Z,332
2022-09-04T05:53:42.158Z,304
2022-09-04T05:54:42.660Z,304
2022-09-04T05:55:43.684Z,320
2022-09-04T05:56:43.595Z,320
2022-09-04T05:57:44.202Z,324
2022-09-04T05:58:45.406Z,328
2022-09-04T05:59:49.712Z,344
2022-09-04T06:00:46.932Z,360
2022-09-04T06:01:51.743Z,352
2022-09-04T06:02:49.121Z,340
2022-09-04T06:03:49.137Z,336
2022-09-04T06:04:49.775Z,360
2022-09-04T06:05:49.925Z,440
2022-09-04T06:06:51.141Z,440
2022-09-04T06:07:52.100Z,412
2022-09-04T06:08:52.314Z,328
2022-09-04T06:09:52.813Z,316
2022-09-04T06:10:53.758Z,368
2022-09-04T06:11:54.254Z,496
2022-09-04T06:12:54.752Z,524
2022-09-04T06:13:54.397Z,384
2022-09-04T06:14:55.894Z,376
2022-09-04T06:15:56.843Z,384
2022-09-04T06:16:57.502Z,368
2022-09-04T06:17:58.063Z,456
2022-09-04T06:18:57.997Z,472
2022-09-04T06:19:58.908Z,488
2022-09-04T06:20:59.834Z,524
2022-09-04T06:22:00.057Z,452
2022-09-04T06:23:08.875Z,520
2022-09-04T06:24:00.794Z,684
2022-09-04T06:25:01.991Z,932
2022-09-04T06:26:04.107Z,1276
2022-09-04T06:27:03.327Z,1600
2022-09-04T06:28:03.546Z,1740
2022-09-04T06:29:06.060Z,2152
2022-09-04T06:30:03.731Z,3064
2022-09-04T06:31:04.596Z,3204
2022-09-04T06:32:05.587Z,2848
2022-09-04T06:33:06.255Z,2580
2022-09-04T06:34:06.240Z,2596
2022-09-04T06:35:07.166Z,2752
2022-09-04T06:36:07.587Z,2480
2022-09-04T06:37:09.080Z,2308
2022-09-04T06:38:08.729Z,2152
2022-09-04T06:39:09.654Z,1672
2022-09-04T06:40:10.395Z,1432
2022-09-04T06:41:10.895Z,1416
2022-09-04T06:42:11.398Z,1940
2022-09-04T06:43:11.623Z,1156
2022-09-04T06:44:12.422Z,676
2022-09-04T06:45:13.994Z,1140
2022-09-04T06:46:14.228Z,904
2022-09-04T06:47:13.272Z,1520
2022-09-04T06:48:13.966Z,1224
2022-09-04T06:49:14.712Z,1228
2022-09-04T06:50:15.359Z,904
2022-09-04T06:51:16.817Z,1016
2022-09-04T06:52:17.134Z,1268
2022-09-04T06:53:17.095Z,948
2022-09-04T06:54:19.295Z,944
2022-09-04T06:55:18.260Z,1012
2022-09-04T06:56:18.710Z,1248
2022-09-04T06:57:18.609Z,1772
2022-09-04T06:58:18.882Z,2980
2022-09-04T06:59:18.957Z,2800
2022-09-04T07:00:19.903Z,3304
2022-09-04T07:01:20.937Z,3128
2022-09-04T07:02:21.713Z,3308
2022-09-04T07:03:21.569Z,2732
2022-09-04T07:04:22.200Z,2704
2022-09-04T07:05:23.124Z,2480
2022-09-04T07:06:24.216Z,1856
2022-09-04T07:07:24.126Z,2224
2022-09-04T07:08:24.572Z,2104
2022-09-04T07:09:25.113Z,2704
2022-09-04T07:10:25.734Z,2812
2022-09-04T07:11:26.654Z,2276
2022-09-04T07:12:26.558Z,2216
2022-09-04T07:13:27.481Z,1880
2022-09-04T07:14:28.699Z,1176
2022-09-04T07:15:28.659Z,676
2022-09-04T07:16:29.360Z,660
2022-09-04T07:17:30.554Z,908
2022-09-04T07:18:31.231Z,2180
2022-09-04T07:19:30.861Z,2188
2022-09-04T07:20:32.085Z,2080
2022-09-04T07:21:36.043Z,1960
2022-09-04T07:22:32.970Z,1920
2022-09-04T07:23:33.598Z,2152
2022-09-04T07:24:34.517Z,932
2022-09-04T07:25:34.446Z,2200
2022-09-04T07:26:35.436Z,2080
2022-09-04T07:27:36.671Z,1872
2022-09-04T07:28:37.229Z,1856
2022-09-04T07:29:38.377Z,1744
2022-09-04T07:30:37.603Z,1584
2022-09-04T07:31:39.159Z,1600
2022-09-04T07:32:39.208Z,892
2022-09-04T07:33:39.062Z,1524
2022-09-04T07:34:39.406Z,1524
2022-09-04T07:35:40.349Z,1696
2022-09-04T07:36:43.629Z,1748
2022-09-04T07:37:41.282Z,1196
2022-09-04T07:38:40.940Z,1644
2022-09-04T07:39:43.130Z,880
2022-09-04T07:40:44.658Z,824
2022-09-04T07:41:43.879Z,1064
2022-09-04T07:42:44.492Z,1452
2022-09-04T07:43:44.236Z,1580
2022-09-04T07:44:44.762Z,1552
2022-09-04T07:45:45.712Z,1612
2022-09-04T07:46:45.903Z,1664
2022-09-04T07:47:46.533Z,1572
2022-09-04T07:48:47.435Z,1544
2022-09-04T07:49:48.938Z,1512
2022-09-04T07:50:48.864Z,1376
2022-09-04T07:51:50.216Z,1400
2022-09-04T07:52:50.242Z,1444
2022-09-04T07:53:51.146Z,1316
2022-09-04T07:54:51.772Z,1728
2022-09-04T07:55:52.694Z,1004
2022-09-04T07:56:53.727Z,1552
2022-09-04T07:57:53.953Z,1248
2022-09-04T07:58:54.173Z,1292
2022-09-04T07:59:54.194Z,1452
2022-09-04T08:00:55.392Z,924
2022-09-04T08:01:56.614Z,1748
2022-09-04T08:02:57.307Z,924
2022-09-04T08:04:05.194Z,956
2022-09-04T08:04:58.775Z,800
2022-09-04T08:05:58.559Z,856
2022-09-04T08:06:59.282Z,1376
2022-09-04T08:07:59.266Z,1456
2022-09-04T08:09:00.245Z,1404
2022-09-04T08:10:00.884Z,1440
2022-09-04T08:11:01.814Z,1512
2022-09-04T08:12:03.311Z,1476
2022-09-04T08:13:03.302Z,1244
2022-09-04T08:14:03.529Z,1764
2022-09-04T08:15:04.031Z,1568
2022-09-04T08:16:05.188Z,1604
2022-09-04T08:17:05.292Z,1216
2022-09-04T08:18:04.938Z,1348
2022-09-04T08:19:06.136Z,904
2022-09-04T08:20:06.466Z,816
2022-09-04T08:21:06.962Z,820
2022-09-04T08:22:07.183Z,836
2022-09-04T08:23:07.684Z,796
2022-09-04T08:24:09.708Z,1136
2022-09-04T08:25:08.049Z,1156
2022-09-04T08:26:09.313Z,1128
2022-09-04T08:27:09.016Z,1188
2022-09-04T08:28:10.516Z,1208
2022-09-04T08:29:10.519Z,1348
2022-09-04T08:30:10.865Z,1152
2022-09-04T08:31:12.333Z,1108
2022-09-04T08:32:12.986Z,1104
2022-09-04T08:33:12.921Z,1060
2022-09-04T08:34:14.243Z,1068
2022-09-04T08:35:14.886Z,1064
2022-09-04T08:36:17.634Z,1064
2022-09-04T08:37:17.413Z,1100
2022-09-04T08:38:16.898Z,1072
2022-09-04T08:39:18.771Z,1096
2022-09-04T08:40:18.423Z,1136
2022-09-04T08:41:18.647Z,1232
2022-09-04T08:42:18.993Z,1224
2022-09-04T08:43:20.491Z,1128
2022-09-04T08:44:20.840Z,924
2022-09-04T08:45:21.149Z,908
2022-09-04T08:46:24.863Z,996
2022-09-04T08:47:23.046Z,1036
2022-09-04T08:48:26.801Z,1176
2022-09-04T08:49:23.728Z,1224
2022-09-04T08:50:24.358Z,1116
2022-09-04T08:51:26.040Z,1204
2022-09-04T08:52:26.605Z,1432
2022-09-04T08:53:27.739Z,1784
2022-09-04T08:54:27.105Z,1612
2022-09-04T08:55:28.031Z,1516
2022-09-04T08:56:28.534Z,1316
2022-09-04T08:57:28.549Z,1748
2022-09-04T08:58:29.843Z,1852
2022-09-04T08:59:30.036Z,2132
2022-09-04T09:00:30.367Z,1932
2022-09-04T09:01:32.212Z,1764
2022-09-04T09:02:32.814Z,1656
2022-09-04T09:03:33.444Z,1620
2022-09-04T09:04:34.089Z,1724
2022-09-04T09:05:34.649Z,1624
2022-09-04T09:06:35.851Z,1472
2022-09-04T09:07:36.153Z,1516
2022-09-04T09:08:41.815Z,1684
2022-09-04T09:09:36.448Z,1772
2022-09-04T09:10:37.097Z,1600
2022-09-04T09:11:38.308Z,1260
2022-09-04T09:12:51.919Z,4596
2022-09-04T09:13:39.566Z,4616
2022-09-04T09:14:40.472Z,3920
2022-09-04T09:15:41.434Z,4412
2022-09-04T09:16:41.881Z,4744
2022-09-04T09:17:45.759Z,3652
2022-09-04T09:18:46.207Z,4436
2022-09-04T09:19:43.571Z,6136
2022-09-04T09:20:44.784Z,9344
2022-09-04T09:21:44.718Z,11768
2022-09-04T09:22:45.623Z,12204
2022-09-04T09:23:46.827Z,12456
2022-09-04T09:24:46.759Z,12620
2022-09-04T09:25:51.865Z,12692
2022-09-04T09:26:48.218Z,12852
2022-09-04T09:27:48.999Z,12744
2022-09-04T09:28:49.932Z,12784
2022-09-04T09:29:50.640Z,12264
2022-09-04T09:30:51.323Z,11992
2022-09-04T09:31:51.916Z,11404
2022-09-04T09:32:52.865Z,9496
2022-09-04T09:33:53.076Z,8184
2022-09-04T09:34:53.531Z,7652
2022-09-04T09:35:54.440Z,7592
2022-09-04T09:36:55.674Z,6928
2022-09-04T09:37:58.278Z,6132
2022-09-04T09:38:57.219Z,6448
2022-09-04T09:39:58.197Z,9584
2022-09-04T09:41:04.386Z,10964
2022-09-04T09:41:59.321Z,9736
2022-09-04T09:43:00.827Z,7432
2022-09-04T09:44:00.763Z,5768
2022-09-04T09:45:01.238Z,5528
2022-09-04T09:46:06.228Z,7844
2022-09-04T09:47:02.313Z,9724
2022-09-04T09:48:06.067Z,10272
2022-09-04T09:49:03.868Z,10224
2022-09-04T09:50:04.317Z,10116
2022-09-04T09:51:04.274Z,9544
2022-09-04T09:52:04.487Z,8120
2022-09-04T09:53:05.719Z,8704
2022-09-04T09:54:05.075Z,10336
2022-09-04T09:55:05.412Z,9064
2022-09-04T09:56:06.627Z,6504
2022-09-04T09:57:07.870Z,5048
2022-09-04T09:58:08.142Z,5964
2022-09-04T09:59:08.375Z,7200
2022-09-04T10:00:08.612Z,6588
2022-09-04T10:01:14.307Z,7432
2022-09-04T10:02:09.875Z,9964
2022-09-04T10:03:10.923Z,11244
2022-09-04T10:04:11.140Z,12072
2022-09-04T10:05:11.777Z,12204
2022-09-04T10:06:13.013Z,11076
2022-09-04T10:07:13.531Z,5664
2022-09-04T10:08:15.589Z,3048
2022-09-04T10:09:19.712Z,1872
2022-09-04T10:10:14.979Z,2416
2022-09-04T10:11:15.640Z,9460
2022-09-04T10:12:16.282Z,12368
2022-09-04T10:13:17.785Z,2088
2022-09-04T10:14:21.070Z,1680
2022-09-04T10:15:19.033Z,1832
2022-09-04T10:16:18.867Z,1852
2022-09-04T10:17:20.125Z,1276
2022-09-04T10:18:20.260Z,1324
2022-09-04T10:19:21.471Z,1320
2022-09-04T10:20:21.423Z,1300
2022-09-04T10:21:22.070Z,1380
2022-09-04T10:22:23.001Z,1736
2022-09-04T10:23:24.699Z,1796
2022-09-04T10:24:24.392Z,2120
2022-09-04T10:25:25.898Z,2324
2022-09-04T10:26:26.919Z,2980
2022-09-04T10:27:26.977Z,5444
2022-09-04T10:28:27.723Z,2084
2022-09-04T10:29:28.670Z,2908
2022-09-04T10:30:29.568Z,2988
2022-09-04T10:31:29.597Z,12036
2022-09-04T10:32:30.831Z,12628
2022-09-04T10:33:30.840Z,12616
2022-09-04T10:34:31.783Z,12476
2022-09-04T10:35:33.365Z,12516
2022-09-04T10:36:33.230Z,12612
2022-09-04T10:37:34.744Z,12612
2022-09-04T10:38:36.699Z,12592
2022-09-04T10:39:35.909Z,12684
2022-09-04T10:40:39.757Z,12756
2022-09-04T10:41:36.777Z,12872
2022-09-04T10:42:37.412Z,12876
2022-09-04T10:43:38.050Z,12856
2022-09-04T10:44:38.958Z,12884
2022-09-04T10:45:39.842Z,12736
2022-09-04T10:46:40.641Z,12784
2022-09-04T10:47:44.451Z,12828
2022-09-04T10:48:43.232Z,12888
2022-09-04T10:49:43.018Z,12728
2022-09-04T10:50:43.948Z,12716
2022-09-04T10:51:44.604Z,12744
2022-09-04T10:52:44.959Z,12628
2022-09-04T10:53:46.193Z,12560
2022-09-04T10:54:49.070Z,12440
2022-09-04T10:55:47.806Z,12340
2022-09-04T10:56:47.017Z,12300
2022-09-04T10:58:52.194Z,12316
2022-09-04T10:59:49.932Z,12372
2022-09-04T11:00:48.930Z,12496
2022-09-04T11:01:49.562Z,12724
2022-09-04T11:02:50.830Z,12768
2022-09-04T11:03:51.041Z,12700
2022-09-04T11:05:51.939Z,12784
2022-09-04T11:06:52.637Z,12880
2022-09-04T11:07:52.580Z,12676
2022-09-04T11:08:53.585Z,12708
2022-09-04T11:09:53.800Z,12720
2022-09-04T11:10:55.016Z,12756
2022-09-04T11:11:55.532Z,12784
2022-09-04T11:12:55.469Z,12796
2022-09-04T11:14:00.741Z,1548
2022-09-04T11:14:56.066Z,1096
2022-09-04T11:15:57.270Z,1344
2022-09-04T11:17:03.081Z,4832
2022-09-04T11:17:59.224Z,13916
2022-09-04T11:18:58.797Z,13020
2022-09-04T11:19:59.034Z,12840
2022-09-04T11:20:59.667Z,10652
2022-09-04T11:22:00.566Z,12024
2022-09-04T11:23:01.939Z,11864
2022-09-04T11:24:03.830Z,11148
2022-09-04T11:25:03.415Z,8416
2022-09-04T11:26:03.880Z,10900
2022-09-04T11:27:08.166Z,10728
2022-09-04T11:28:05.557Z,10420
2022-09-04T11:29:05.878Z,10224
2022-09-04T11:30:05.864Z,10132
2022-09-04T11:31:07.084Z,10000
2022-09-04T11:32:07.702Z,9964
2022-09-04T11:33:09.848Z,9920
2022-09-04T11:34:08.130Z,9956
2022-09-04T11:35:09.097Z,9948
2022-09-04T11:36:09.709Z,9836
2022-09-04T11:37:09.623Z,9776
2022-09-04T11:38:11.131Z,9740
2022-09-04T11:39:11.437Z,9716
2022-09-04T11:40:12.742Z,9780
2022-09-04T11:41:12.253Z,10024
2022-09-04T11:42:12.184Z,4248
2022-09-04T11:43:13.129Z,1396
2022-09-04T11:44:14.434Z,9792
2022-09-04T11:45:14.650Z,9448
2022-09-04T11:46:15.574Z,9312
2022-09-04T11:47:15.513Z,9012
2022-09-04T11:48:16.450Z,8868
2022-09-04T11:49:16.729Z,8780
2022-09-04T11:50:17.702Z,8800
2022-09-04T11:51:17.630Z,8884
2022-09-04T11:52:18.568Z,8968
2022-09-04T11:53:19.538Z,8152
2022-09-04T11:54:20.886Z,2588
2022-09-04T11:55:21.168Z,1268
2022-09-04T11:56:21.824Z,1344
2022-09-04T11:57:22.168Z,5736
2022-09-04T11:58:23.802Z,7204
2022-09-04T11:59:24.217Z,5904
2022-09-04T12:00:25.149Z,1584
2022-09-04T12:01:25.381Z,1232
2022-09-04T12:02:26.687Z,1804
2022-09-04T12:03:26.802Z,9300
2022-09-04T12:04:28.805Z,6992
2022-09-04T12:05:29.017Z,6420
2022-09-04T12:06:29.243Z,8660
2022-09-04T12:07:38.034Z,1916
2022-09-04T12:08:30.945Z,3768
2022-09-04T12:09:31.389Z,8484
2022-09-04T12:10:32.329Z,8408
2022-09-04T12:11:32.910Z,3548
2022-09-04T12:12:33.855Z,8160
2022-09-04T12:13:34.287Z,8164
2022-09-04T12:14:33.994Z,2832
2022-09-04T12:15:36.460Z,992
2022-09-04T12:16:35.420Z,976
2022-09-04T12:17:36.211Z,2292
2022-09-04T12:18:37.147Z,3592
2022-09-04T12:19:38.434Z,7964
2022-09-04T12:20:38.072Z,7884
2022-09-04T12:21:39.283Z,7872
2022-09-04T12:22:39.800Z,7848
2022-09-04T12:23:39.729Z,7804
2022-09-04T12:24:40.931Z,7804
2022-09-04T12:25:41.153Z,7808
2022-09-04T12:26:59.790Z,7728
2022-09-04T12:27:42.765Z,7736
2022-09-04T12:28:42.707Z,7716
2022-09-04T12:29:44.107Z,7680
2022-09-04T12:30:44.468Z,7704
2022-09-04T12:31:45.990Z,7740
2022-09-04T12:32:46.445Z,7520
2022-09-04T12:33:47.676Z,5764
2022-09-04T12:34:47.887Z,2396
2022-09-04T12:35:49.093Z,1380
2022-09-04T12:36:48.545Z,7912
2022-09-04T12:37:50.048Z,8156
2022-09-04T12:38:50.258Z,5032
2022-09-04T12:39:51.509Z,8736
2022-09-04T12:40:52.173Z,8888
2022-09-04T12:41:55.525Z,9096
2022-09-04T12:42:51.859Z,9624
2022-09-04T12:43:52.773Z,9788
2022-09-04T12:44:54.111Z,10120
2022-09-04T12:45:54.334Z,10484
2022-09-04T12:46:55.354Z,10240
2022-09-04T12:47:57.679Z,10312
2022-09-04T12:48:56.615Z,10416
2022-09-04T12:49:56.994Z,10092
2022-09-04T12:50:58.022Z,9052
2022-09-04T12:51:57.933Z,4216
2022-09-04T12:52:58.862Z,3260
2022-09-04T12:54:03.759Z,1732
2022-09-04T12:54:59.368Z,1868
2022-09-04T12:56:00.620Z,1712
2022-09-04T12:57:01.255Z,9616
2022-09-04T12:58:01.535Z,8692
2022-09-04T12:59:02.346Z,3556
2022-09-04T13:00:02.947Z,3280
2022-09-04T13:01:03.547Z,2876
2022-09-04T13:02:04.146Z,2088
2022-09-04T13:03:04.008Z,1296
2022-09-04T13:04:04.862Z,1144
2022-09-04T13:05:05.570Z,1144
2022-09-04T13:06:06.774Z,1540
2022-09-04T13:07:15.763Z,1848
2022-09-04T13:08:07.512Z,9044
2022-09-04T13:09:08.714Z,1696
2022-09-04T13:10:09.408Z,9732
2022-09-04T13:11:11.732Z,1376
2022-09-04T13:12:10.653Z,1112
2022-09-04T13:13:10.813Z,948
2022-09-04T13:14:11.427Z,908
2022-09-04T13:15:12.077Z,948
2022-09-04T13:16:13.018Z,948
2022-09-04T13:17:14.062Z,992
2022-09-04T13:18:14.288Z,6540
2022-09-04T13:19:14.841Z,8380
2022-09-04T13:20:14.947Z,9040
2022-09-04T13:21:15.178Z,9224
2022-09-04T13:22:16.089Z,9816
2022-09-04T13:23:35.474Z,9316
2022-09-04T13:24:17.314Z,9404
2022-09-04T13:25:17.523Z,6168
2022-09-04T13:26:23.887Z,3032
2022-09-04T13:27:21.546Z,2552
2022-09-04T13:28:22.736Z,5264
2022-09-04T13:29:19.944Z,1268
2022-09-04T13:30:20.728Z,1128
2022-09-04T13:31:20.718Z,1272
2022-09-04T13:32:22.472Z,2308
2022-09-04T13:33:21.394Z,2244
2022-09-04T13:34:24.182Z,1248
2022-09-04T13:35:26.531Z,1144
2022-09-04T13:36:23.334Z,1136
2022-09-04T13:37:23.080Z,3248
2022-09-04T13:38:24.011Z,6416
2022-09-04T13:39:24.735Z,6112
2022-09-04T13:40:25.197Z,5952
2022-09-04T13:41:30.348Z,5664
2022-09-04T13:42:27.277Z,5720
2022-09-04T13:43:26.579Z,5604
2022-09-04T13:44:27.519Z,5520
2022-09-04T13:45:28.451Z,5440
2022-09-04T13:46:29.889Z,5424
2022-09-04T13:47:38.706Z,5416
2022-09-04T13:48:30.933Z,5404
2022-09-04T13:49:31.277Z,5400
2022-09-04T13:50:37.014Z,5348
2022-09-04T13:51:32.973Z,5288
2022-09-04T13:52:34.511Z,5264
2022-09-04T13:53:34.457Z,5276
2022-09-04T13:54:34.817Z,5352
2022-09-04T13:55:35.481Z,5512
2022-09-04T13:56:36.111Z,5588
2022-09-04T13:57:37.042Z,5488
2022-09-04T13:58:37.655Z,5400